DW8006 Weather Reports


time (UTC)temp
C
wind
direction
speed
KPH
gust
KPH
rain 1hr
cm
rain 24hr
cm
rain mn
cm
humidity
%
barometer
mb
20200227123016 0 113 16.1 24.1 0.05 0.64 0.23 96 994.2
20200227122015 1 121 16.1 22.5 0.05 0.69 0.23 96 994.6
20200227121015 1 117 17.7 25.7 0.05 0.71 0.23 96 995.0
20200227120015 1 113 16.1 22.5 0.05 0.71 0.23 95 995.4
20200227115015 1 119 14.5 20.9 0.05 0.71 0.23 95 995.9
20200227114015 1 115 12.9 20.9 0.08 0.71 0.20 95 996.2
20200227113015 1 125 12.9 19.3 0.10 0.71 0.20 95 996.6
20200227112015 1 122 16.1 27.4 0.10 0.69 0.18 95 997.1
20200227111015 1 134 14.5 22.5 0.10 0.69 0.18 95 997.4
20200227110015 1 125 12.9 22.5 0.08 0.66 0.15 94 997.8
20200227105015 1 132 11.3 24.1 0.08 0.66 0.15 93 998.1
20200227104015 1 131 12.9 20.9 0.05 0.61 0.13 93 998.4
20200227103015 2 136 11.3 19.3 0.05 0.61 0.10 93 998.7
20200227102015 2 127 9.7 16.1 0.03 0.61 0.08 92 999.0
20200227101015 2 125 9.7 16.1 0.05 0.61 0.08 92 999.4
20200227100015 2 127 11.3 17.7 0.05 0.61 0.08 91 999.7
20200227095015 2 140 12.9 20.9 0.05 0.61 0.08 90 1000.0
20200227094015 2 150 11.3 24.1 0.03 0.61 0.05 90 1000.4
20200227093018 2 149 9.7 20.9 0.03 0.61 0.05 90 1000.6
20200227092015 2 161 12.9 20.9 0.03 0.61 0.05 91 1000.9
20200227091015 2 172 11.3 24.1 0.00 0.58 0.05 90 1001.1
20200227090015 2 163 11.3 20.9 0.00 0.58 0.05 91 1001.3
20200227085015 2 179 9.7 19.3 0.00 0.58 0.05 91 1001.5
20200227084016 2 167 12.9 24.1 0.00 0.58 0.05 91 1001.8
20200227083015 1 174 11.3 24.1 0.00 0.58 0.05 92 1001.9
20200227082015 1 148 8.0 16.1 0.00 0.58 0.05 92 1002.1
20200227081015 1 169 9.7 17.7 0.00 0.58 0.05 93 1002.4
20200227080016 1 169 9.7 19.3 0.00 0.58 0.05 93 1002.6
20200227075015 1 170 8.0 17.7 0.00 0.58 0.05 93 1002.7
20200227074015 1 136 4.8 8.0 0.00 0.58 0.05 93 1002.8
20200227073015 1 145 4.8 16.1 0.00 0.58 0.05 93 1002.8
20200227072015 1 137 8.0 14.5 0.03 0.58 0.05 93 1002.9
20200227071015 0 120 6.4 12.9 0.03 0.58 0.05 93 1003.1
20200227070015 0 129 4.8 14.5 0.03 0.58 0.05 93 1003.2
20200227065015 0 158 4.8 9.7 0.03 0.58 0.05 94 1003.3
20200227064015 0 161 6.4 12.9 0.03 0.58 0.05 94 1003.4
20200227063019 0 156 8.0 17.7 0.03 0.58 0.05 94 1003.4
20200227062015 0 150 6.4 16.1 0.00 0.56 0.03 93 1003.6
20200227061016 0 145 4.8 11.3 0.00 0.56 0.03 93 1003.6
20200227060015 0 150 4.8 11.3 0.00 0.56 0.03 93 1003.9
20200227055015 0 145 4.8 8.0 0.00 0.56 0.03 93 1004.1
20200227054015 0 166 3.2 8.0 0.00 0.56 0.03 93 1004.2
20200227053015 0 162 3.2 8.0 0.00 0.56 0.03 92 1004.4
20200227052015 1 139 1.6 4.8 0.00 0.56 0.03 92 1004.5
20200227051015 1 148 3.2 8.0 0.00 0.56 0.03 91 1004.6
20200227050015 1 156 3.2 8.0 0.00 0.56 0.03 92 1004.7
20200227045015 1 165 1.6 8.0 0.00 0.56 0.03 91 1004.8
20200227044016 1 205 4.8 12.9 0.00 0.56 0.03 91 1004.9
20200227043015 1 187 3.2 8.0 0.00 0.56 0.03 91 1005.0
20200227042015 1 165 3.2 11.3 0.03 0.56 0.03 91 1005.1
20200227041015 1 216 3.2 9.7 0.03 0.56 0.03 91 1005.2
20200227040015 1 229 3.2 11.3 0.03 0.58 0.03 91 1005.2
20200227035016 1 190 3.2 9.7 0.03 0.58 0.03 92 1005.2
20200227034015 1 193 1.6 9.7 0.03 0.58 0.03 93 1005.2
20200227033015 1 176 3.2 11.3 0.03 0.58 0.03 93 1005.3
20200227032015 1 168 1.6 6.4 0.00 0.56 0.00 93 1005.3
20200227031015 1 172 1.6 6.4 0.00 0.56 0.00 93 1005.4
20200227030015 1 174 1.6 11.3 0.00 0.56 0.00 93 1005.4
20200227025016 1 176 4.8 12.9 0.00 0.56 0.00 93 1005.4
20200227024015 1 181 3.2 8.0 0.00 0.56 0.00 94 1005.5
20200227023016 1 164 1.6 4.8 0.00 0.56 0.00 94 1005.6
20200227022015 1 165 0.0 3.2 0.00 0.56 0.00 93 1005.7
20200227021015 1 165 0.0 4.8 0.00 0.56 0.00 93 1005.7
20200227020015 1 165 0.0 6.4 0.00 0.56 0.00 93 1005.7
20200227015016 1 190 1.6 4.8 0.00 0.56 0.00 93 1005.9
20200227014015 1 193 1.6 4.8 0.00 0.56 0.00 93 1006.0
20200227013015 1 221 3.2 6.4 0.00 0.56 0.00 93 1006.0
20200227012016 1 183 3.2 8.0 0.00 0.56 0.00 94 1006.0
20200227011015 1 171 3.2 8.0 0.00 0.56 0.00 94 1006.0
20200227010015 1 176 3.2 9.7 0.00 0.58 0.00 94 1006.0
20200227005015 1 192 1.6 6.4 0.00 0.58 0.00 95 1005.9
20200227004015 1 233 1.6 4.8 0.00 0.61 0.00 94 1006.0
20200227003016 1 0.0 3.2 0.00 0.61 0.00 94 1006.0
20200227002018 1 257 0.0 3.2 0.00 0.61 0.00 94 1005.9
20200227001015 1 257 1.6 4.8 0.00 0.61 0.00 94 1005.9
20200227000016 1 250 1.6 11.3 0.00 0.61 0.00 93 1006.0
20200226235016 1 246 4.8 9.7 0.00 0.61 0.00 93 1005.9
20200226234015 1 249 4.8 11.3 0.00 0.61 0.00 92 1005.9
20200226233015 1 252 4.8 11.3 0.00 0.61 0.00 92 1005.9
20200226232015 1 249 3.2 8.0 0.00 0.61 0.00 92 1005.9
20200226231015 1 250 4.8 8.0 0.00 0.61 0.00 92 1005.9
20200226230016 1 262 4.8 9.7 0.00 0.61 0.61 92 1005.9
20200226225015 1 272 3.2 8.0 0.00 0.61 0.61 92 1005.7
20200226224015 1 269 1.6 8.0 0.00 0.61 0.61 92 1005.7
20200226223015 1 252 3.2 9.7 0.00 0.61 0.61 91 1005.7
20200226222015 1 245 1.6 6.4 0.00 0.61 0.61 91 1005.7
20200226221015 1 264 4.8 11.3 0.00 0.61 0.61 91 1005.6
20200226220015 1 260 4.8 11.3 0.00 0.61 0.61 91 1005.5
20200226215016 1 251 1.6 8.0 0.00 0.61 0.61 91 1005.5
20200226214016 1 263 3.2 11.3 0.00 0.61 0.61 91 1005.5
20200226213015 1 275 6.4 14.5 0.00 0.61 0.61 91 1005.5
20200226212015 1 283 4.8 14.5 0.00 0.61 0.61 91 1005.4
20200226211015 1 280 4.8 12.9 0.00 0.61 0.61 91 1005.3
20200226210015 1 291 4.8 11.3 0.00 0.61 0.61 91 1005.3
20200226205015 1 281 6.4 16.1 0.00 0.61 0.61 90 1005.2
20200226204015 1 282 4.8 14.5 0.00 0.61 0.61 91 1005.1
20200226203015 1 274 6.4 20.9 0.00 0.61 0.61 91 1005.0
20200226202015 1 288 6.4 17.7 0.00 0.61 0.61 91 1004.8
20200226201015 1 272 6.4 20.9 0.00 0.61 0.61 90 1004.8
20200226200015 1 279 8.0 20.9 0.00 0.61 0.61 90 1004.6
20200226195015 1 274 4.8 11.3 0.00 0.61 0.61 89 1004.5
20200226194015 1 274 9.7 20.9 0.00 0.61 0.61 90 1004.6
20200226193015 1 287 6.4 19.3 0.00 0.61 0.61 89 1004.5
20200226192015 1 276 6.4 17.7 0.00 0.69 0.61 89 1004.5
20200226191015 1 281 8.0 24.1 0.00 0.76 0.61 89 1004.4
20200226190015 1 275 8.0 17.7 0.00 0.76 0.61 89 1004.3
20200226185015 1 283 8.0 17.7 0.00 0.76 0.61 89 1004.2
20200226184015 1 275 8.0 22.5 0.03 0.76 0.61 89 1004.2
20200226183015 1 276 8.0 29.0 0.03 0.76 0.61 89 1004.2
20200226182015 1 271 6.4 17.7 0.03 0.79 0.61 89 1004.0
20200226181017 1 277 8.0 20.9 0.03 0.79 0.61 89 1003.9
20200226180015 1 272 8.0 16.1 0.03 0.79 0.61 89 1003.8
20200226175015 1 275 6.4 19.3 0.03 0.79 0.61 89 1003.7
20200226174015 1 278 8.0 20.9 0.00 0.79 0.58 89 1003.5
20200226173015 2 287 8.0 16.1 0.03 0.79 0.58 89 1003.3
20200226172015 2 273 9.7 20.9 0.03 0.79 0.58 89 1003.1
20200226171016 2 283 6.4 20.9 0.03 0.81 0.58 89 1003.0
20200226170015 2 283 9.7 22.5 0.03 0.81 0.58 89 1002.8
20200226165015 2 280 9.7 20.9 0.05 0.84 0.58 89 1002.6
20200226164016 2 278 8.0 17.7 0.05 0.86 0.58 90 1002.5
20200226163015 2 285 6.4 27.4 0.03 0.84 0.56 89 1002.4
20200226162015 2 287 11.3 19.3 0.05 0.86 0.56 90 1002.2
20200226161015 2 288 9.7 24.1 0.05 0.86 0.56 90 1002.1
20200226160015 2 284 9.7 20.9 0.05 0.86 0.56 91 1002.0
20200226155015 2 273 8.0 22.5 0.05 0.84 0.53 92 1001.7
20200226154015 2 280 8.0 17.7 0.08 0.84 0.53 93 1001.6
20200226153015 2 287 8.0 19.3 0.10 0.84 0.53 93 1001.4
20200226152016 2 291 8.0 24.1 0.08 0.81 0.51 93 1001.2
20200226151015 2 291 8.0 20.9 0.10 0.81 0.51 93 1001.1
20200226150015 2 293 8.0 16.1 0.10 0.79 0.51 93 1000.9
20200226145015 2 287 8.0 17.7 0.10 0.79 0.48 93 1000.8
20200226144015 2 285 12.9 24.1 0.10 0.76 0.46 92 1000.6
20200226143015 2 287 6.4 12.9 0.13 0.74 0.43 93 1000.5
20200226142016 2 292 6.4 16.1 0.13 0.74 0.43 94 1000.4
20200226141015 1 290 6.4 12.9 0.13 0.71 0.43 94 1000.2
20200226140016 1 294 4.8 16.1 0.13 0.71 0.41 92 1000.1
20200226135015 2 286 8.0 14.5 0.13 0.69 0.38 92 1000.0
20200226134015 2 290 9.7 29.0 0.13 0.69 0.36 90 999.9
20200226133015 2 290 8.0 24.1 0.13 0.64 0.33 89 999.6
20200226132015 2 278 12.9 30.6 0.15 0.64 0.33 89 999.5
20200226131015 2 275 8.0 22.5 0.15 0.61 0.30 90 999.4
20200226130015 2 284 9.7 27.4 0.18 0.61 0.28 90 999.3
20200226125015 2 264 8.0 19.3 0.15 0.58 0.25 90 999.1
20200226124015 2 282 8.0 22.5 0.15 0.56 0.23 90 999.0